createdAt,value
2022-11-15T00:00:05.898Z,102400.77
2022-11-15T00:02:48.591Z,102402.03
2022-11-15T00:05:21.696Z,102400.58
2022-11-15T00:07:55.782Z,102401.58
2022-11-15T00:10:28.003Z,102398.52
2022-11-15T00:12:59.439Z,102395.25
2022-11-15T00:15:31.046Z,102397.90
2022-11-15T00:18:02.705Z,102393.27
2022-11-15T00:20:34.630Z,102391.68
2022-11-15T00:23:07.991Z,102392.36
2022-11-15T00:25:40.247Z,102395.39
2022-11-15T00:28:12.257Z,102395.83
2022-11-15T00:30:43.564Z,102400.47
2022-11-15T00:33:16.335Z,102403.77
2022-11-15T00:35:47.800Z,102401.70
2022-11-15T00:38:20.075Z,102404.17
2022-11-15T00:40:51.971Z,102402.02
2022-11-15T00:43:23.857Z,102402.38
2022-11-15T00:45:55.494Z,102404.66
2022-11-15T00:48:27.387Z,102406.01
2022-11-15T00:50:59.114Z,102404.72
2022-11-15T00:53:31.198Z,102402.60
2022-11-15T00:56:03.328Z,102402.85
2022-11-15T00:58:35.391Z,102404.86
2022-11-15T01:01:13.503Z,102403.52
2022-11-15T01:03:45.748Z,102390.54
2022-11-15T01:06:17.599Z,102392.50
2022-11-15T01:08:49.107Z,102399.91
2022-11-15T01:11:21.102Z,102397.64
2022-11-15T01:13:53.117Z,102398.61
2022-11-15T01:16:25.717Z,102401.59
2022-11-15T01:18:57.866Z,102404.23
2022-11-15T01:21:29.827Z,102402.77
2022-11-15T01:24:02.563Z,102404.67
2022-11-15T01:26:34.338Z,102410.33
2022-11-15T01:29:06.612Z,102412.52
2022-11-15T01:31:36.081Z,102408.71
2022-11-15T01:34:07.459Z,102411.06
2022-11-15T01:36:39.425Z,102407.92
2022-11-15T01:39:11.228Z,102419.45
2022-11-15T01:41:43.442Z,102416.14
2022-11-15T01:44:47.578Z,102417.16
2022-11-15T01:47:22.605Z,102416.98
2022-11-15T01:50:00.179Z,102412.06
2022-11-15T01:52:35.626Z,102419.77
2022-11-15T01:55:10.936Z,102424.89
2022-11-15T01:57:43.859Z,102428.56
2022-11-15T02:00:19.501Z,102433.11
2022-11-15T02:02:51.318Z,102432.48
2022-11-15T02:05:23.230Z,102445.31
2022-11-15T02:07:55.614Z,102443.81
2022-11-15T02:10:28.755Z,102442.53
2022-11-15T02:13:02.624Z,102448.28
2022-11-15T02:15:44.903Z,102452.20
2022-11-15T02:18:28.675Z,102451.98
2022-11-15T02:21:21.896Z,102450.55
2022-11-15T02:24:27.504Z,102456.15
2022-11-15T02:27:33.822Z,102454.37
2022-11-15T02:30:21.745Z,102462.20
2022-11-15T02:32:59.258Z,102467.26
2022-11-15T02:35:42.073Z,102473.26
2022-11-15T02:38:22.182Z,102477.67
2022-11-15T02:41:02.438Z,102477.50
2022-11-15T02:43:57.186Z,102480.13
2022-11-15T02:46:52.796Z,102483.79
2022-11-15T02:49:26.439Z,102480.20
2022-11-15T02:52:00.247Z,102475.48
2022-11-15T02:54:33.983Z,102478.78
2022-11-15T02:57:10.309Z,102479.87
2022-11-15T02:59:59.559Z,102484.45
2022-11-15T03:02:45.178Z,102483.66
2022-11-15T03:05:24.384Z,102483.67
2022-11-15T03:08:04.444Z,102484.59
2022-11-15T03:10:47.039Z,102484.32
2022-11-15T03:13:26.297Z,102477.23
2022-11-15T03:16:07.974Z,102477.06
2022-11-15T03:18:42.411Z,102485.02
2022-11-15T03:21:17.221Z,102483.50
2022-11-15T03:23:51.967Z,102489.89
2022-11-15T03:26:26.309Z,102487.78
2022-11-15T03:29:01.521Z,102489.27
2022-11-15T03:31:53.388Z,102485.27
2022-11-15T03:34:30.514Z,102483.33
2022-11-15T03:37:02.998Z,102476.62
2022-11-15T03:39:35.766Z,102482.10
2022-11-15T03:42:17.906Z,102483.89
2022-11-15T03:44:56.696Z,102484.81
2022-11-15T03:47:33.673Z,102484.63
2022-11-15T03:50:09.483Z,102485.84
2022-11-15T03:52:41.725Z,102487.34
2022-11-15T03:55:12.845Z,102486.08
2022-11-15T03:57:44.324Z,102481.83
2022-11-15T04:00:21.404Z,102491.78
2022-11-15T04:02:53.813Z,102485.10
2022-11-15T04:05:23.179Z,102487.14
2022-11-15T04:07:55.376Z,102483.32
2022-11-15T04:10:27.510Z,102484.41
2022-11-15T04:12:59.201Z,102480.98
2022-11-15T04:15:32.898Z,102483.88
2022-11-15T04:18:04.516Z,102482.73
2022-11-15T04:20:53.670Z,102490.42
2022-11-15T04:23:44.045Z,102492.07
2022-11-15T04:26:19.365Z,102492.92
2022-11-15T04:29:04.754Z,102500.23
2022-11-15T04:31:36.254Z,102505.04
2022-11-15T04:34:08.009Z,102507.27
2022-11-15T04:36:56.164Z,102506.19
2022-11-15T04:39:28.004Z,102504.56
2022-11-15T04:41:59.788Z,102508.44
2022-11-15T04:44:34.209Z,102514.38
2022-11-15T04:47:06.055Z,102516.55
2022-11-15T04:49:37.668Z,102522.31
2022-11-15T04:52:10.032Z,102525.14
2022-11-15T04:54:41.753Z,102531.85
2022-11-15T04:57:14.329Z,102531.81
2022-11-15T04:59:45.858Z,102529.92
2022-11-15T05:02:17.892Z,102533.05
2022-11-15T05:04:49.782Z,102533.14
2022-11-15T05:07:21.809Z,102535.23
2022-11-15T05:09:53.545Z,102534.83
2022-11-15T05:12:26.193Z,102533.61
2022-11-15T05:14:57.840Z,102537.26
2022-11-15T05:17:30.101Z,102538.59
2022-11-15T05:20:01.620Z,102537.40
2022-11-15T05:22:34.169Z,102535.75
2022-11-15T05:25:05.745Z,102534.20
2022-11-15T05:27:37.654Z,102534.12
2022-11-15T05:30:11.803Z,102539.02
2022-11-15T05:32:44.068Z,102531.52
2022-11-15T05:35:22.922Z,102531.61
2022-11-15T05:37:55.279Z,102535.23
2022-11-15T05:40:28.056Z,102535.30
2022-11-15T05:43:00.623Z,102534.34
2022-11-15T05:45:32.630Z,102538.15
2022-11-15T05:48:09.252Z,102536.76
2022-11-15T05:50:43.209Z,102536.70
2022-11-15T05:53:15.579Z,102534.41
2022-11-15T05:55:47.395Z,102537.59
2022-11-15T05:58:19.513Z,102540.79
2022-11-15T06:00:54.344Z,102541.57
2022-11-15T06:03:26.108Z,102540.56
2022-11-15T06:05:57.754Z,102548.20
2022-11-15T06:08:31.354Z,102550.27
2022-11-15T06:11:07.150Z,102559.81
2022-11-15T06:13:38.866Z,102560.13
2022-11-15T06:16:11.185Z,102560.30
2022-11-15T06:18:43.448Z,102563.27
2022-11-15T06:21:15.448Z,102564.77
2022-11-15T06:23:47.138Z,102563.97
2022-11-15T06:26:18.878Z,102563.65
2022-11-15T06:28:50.376Z,102567.37
2022-11-15T06:31:22.408Z,102564.20
2022-11-15T06:33:54.200Z,102567.31
2022-11-15T06:36:26.070Z,102566.86
2022-11-15T06:38:57.820Z,102567.59
2022-11-15T06:41:29.842Z,102568.19
2022-11-15T06:44:01.830Z,102563.13
2022-11-15T06:46:33.735Z,102566.33
2022-11-15T06:49:09.385Z,102566.28
2022-11-15T06:51:41.760Z,102572.54
2022-11-15T06:54:14.500Z,102571.88
2022-11-15T06:56:46.063Z,102570.81
2022-11-15T06:59:17.731Z,102570.25
2022-11-15T07:01:49.486Z,102572.22
2022-11-15T07:04:21.516Z,102577.66
2022-11-15T07:06:55.991Z,102575.03
2022-11-15T07:09:28.350Z,102573.73
2022-11-15T07:12:04.659Z,102572.05
2022-11-15T07:14:39.361Z,102571.42
2022-11-15T07:17:12.828Z,102573.14
2022-11-15T07:19:44.808Z,102577.79
2022-11-15T07:22:16.456Z,102575.42
2022-11-15T07:24:48.251Z,102578.25
2022-11-15T07:27:20.079Z,102572.75
2022-11-15T07:29:51.839Z,102573.91
2022-11-15T07:32:23.336Z,102575.75
2022-11-15T07:34:55.268Z,102582.05
2022-11-15T07:37:26.941Z,102583.39
2022-11-15T07:39:58.685Z,102580.72
2022-11-15T07:42:46.394Z,102582.06
2022-11-15T07:45:18.323Z,102582.53
2022-11-15T07:47:53.515Z,102578.59
2022-11-15T07:50:25.791Z,102577.43
2022-11-15T07:53:00.871Z,102575.85
2022-11-15T07:55:33.330Z,102579.35
2022-11-15T07:58:11.120Z,102580.14
2022-11-15T08:00:42.896Z,102588.66
2022-11-15T08:03:16.901Z,102592.98
2022-11-15T08:05:54.688Z,102590.83
2022-11-15T08:08:26.715Z,102592.09
2022-11-15T08:11:01.701Z,102602.62
2022-11-15T08:13:33.370Z,102603.56
2022-11-15T08:16:08.476Z,102606.80
2022-11-15T08:18:40.181Z,102597.77
2022-11-15T08:21:18.123Z,102601.52
2022-11-15T08:23:50.282Z,102602.11
2022-11-15T08:26:22.035Z,102604.08
2022-11-15T08:28:53.766Z,102607.25
2022-11-15T08:31:25.474Z,102607.81
2022-11-15T08:33:57.113Z,102603.75
2022-11-15T08:36:32.120Z,102602.89
2022-11-15T08:39:09.202Z,102599.84
2022-11-15T08:41:42.212Z,102598.23
2022-11-15T08:44:13.903Z,102604.84
2022-11-15T08:46:46.100Z,102604.94
2022-11-15T08:49:17.627Z,102603.26
2022-11-15T08:51:49.467Z,102605.16
2022-11-15T08:54:20.948Z,102611.69
2022-11-15T08:56:53.105Z,102609.95
2022-11-15T08:59:24.715Z,102611.75
2022-11-15T09:01:56.645Z,102610.88
2022-11-15T09:04:29.432Z,102608.09
2022-11-15T09:07:01.578Z,102608.48
2022-11-15T09:09:34.079Z,102607.98
2022-11-15T09:12:06.767Z,102608.22
2022-11-15T09:14:39.847Z,102603.23
2022-11-15T09:17:14.615Z,102604.16
2022-11-15T09:19:45.788Z,102610.55
2022-11-15T09:22:17.372Z,102612.52
2022-11-15T09:24:48.791Z,102613.45
2022-11-15T09:27:21.087Z,102609.35
2022-11-15T09:29:52.517Z,102611.71
2022-11-15T09:32:25.373Z,102607.20
2022-11-15T09:34:56.710Z,102607.21
2022-11-15T09:37:28.337Z,102616.02
2022-11-15T09:40:00.183Z,102612.83
2022-11-15T09:42:49.391Z,102614.42
2022-11-15T09:45:28.250Z,102614.23
2022-11-15T09:48:21.076Z,102616.73
2022-11-15T09:50:56.168Z,102623.63
2022-11-15T09:53:09.546Z,102625.02
2022-11-15T09:55:23.681Z,102630.11
2022-11-15T09:57:44.034Z,102628.87
2022-11-15T10:03:01.190Z,102620.25
2022-11-15T10:05:16.993Z,102620.21
2022-11-15T10:07:37.674Z,102610.59
2022-11-15T10:09:58.727Z,102604.64
2022-11-15T10:12:16.184Z,102597.29
2022-11-15T10:14:32.395Z,102599.45
2022-11-15T10:17:20.047Z,102587.77
2022-11-15T10:19:39.703Z,102588.65
2022-11-15T10:22:00.613Z,102593.81
2022-11-15T10:24:20.610Z,102598.64
2022-11-15T10:26:33.988Z,102596.77
2022-11-15T10:28:47.251Z,102600.42
2022-11-15T10:31:01.792Z,102605.90
2022-11-15T10:33:29.022Z,102595.80
2022-11-15T10:35:43.810Z,102605.09
2022-11-15T10:38:08.639Z,102605.58
2022-11-15T10:40:26.007Z,102614.56
2022-11-15T10:42:39.384Z,102610.66
2022-11-15T10:44:52.777Z,102611.89
2022-11-15T10:47:39.497Z,102617.02
2022-11-15T10:50:01.540Z,102617.88
2022-11-15T10:52:24.394Z,102623.34
2022-11-15T10:54:38.150Z,102621.10
2022-11-15T10:56:57.672Z,102624.29
2022-11-15T10:59:18.902Z,102618.89
2022-11-15T11:01:33.523Z,102623.62
2022-11-15T11:03:48.333Z,102614.37
2022-11-15T11:06:12.785Z,102610.80
2022-11-15T11:08:31.264Z,102607.61
2022-11-15T11:11:02.003Z,102614.00
2022-11-15T11:13:29.591Z,102617.25
2022-11-15T11:15:44.433Z,102620.06
2022-11-15T11:18:19.954Z,102624.48
2022-11-15T11:20:40.915Z,102624.52
2022-11-15T11:23:06.849Z,102629.29
2022-11-15T11:25:43.919Z,102613.41
2022-11-15T11:28:10.382Z,102621.89
2022-11-15T11:30:28.535Z,102625.19
2022-11-15T11:33:00.690Z,102616.99
2022-11-15T11:35:24.526Z,102619.86
2022-11-15T11:37:44.015Z,102633.37
2022-11-15T11:40:11.082Z,102635.27
2022-11-15T11:42:37.101Z,102639.27
2022-11-15T11:45:02.857Z,102636.67
2022-11-15T11:47:23.602Z,102637.23
2022-11-15T11:49:43.842Z,102639.14
2022-11-15T11:52:04.600Z,102643.55
2022-11-15T11:54:25.101Z,102648.30
2022-11-15T11:56:41.545Z,102641.20
2022-11-15T11:58:57.168Z,102641.70
2022-11-15T12:01:24.755Z,102643.74
2022-11-15T12:03:46.584Z,102637.53
2022-11-15T12:06:03.870Z,102637.69
2022-11-15T12:08:37.644Z,102634.06
2022-11-15T12:10:57.838Z,102625.55
2022-11-15T12:13:15.551Z,102622.45
2022-11-15T12:15:32.772Z,102622.48
2022-11-15T12:17:47.394Z,102624.15
2022-11-15T12:20:04.185Z,102629.98
2022-11-15T12:22:24.927Z,102632.44
2022-11-15T12:24:44.012Z,102632.59
2022-11-15T12:27:01.951Z,102636.38
2022-11-15T12:29:21.158Z,102641.23
2022-11-15T12:31:41.509Z,102647.83
2022-11-15T12:34:04.325Z,102654.78
2022-11-15T12:36:39.069Z,102661.92
2022-11-15T12:39:01.678Z,102663.07
2022-11-15T12:41:27.558Z,102673.20
2022-11-15T12:43:47.659Z,102668.66
2022-11-15T12:46:06.185Z,102669.59
2022-11-15T12:49:03.321Z,102658.15
2022-11-15T12:51:16.631Z,102658.42
2022-11-15T12:53:37.089Z,102667.38
2022-11-15T12:56:10.666Z,102665.00
2022-11-15T12:58:45.464Z,102668.95
2022-11-15T13:00:58.870Z,102666.14
2022-11-15T13:03:31.744Z,102667.55
2022-11-15T13:06:00.596Z,102670.73
2022-11-15T13:08:36.598Z,102670.04
2022-11-15T13:10:49.896Z,102673.20
2022-11-15T13:13:06.117Z,102678.34
2022-11-15T13:15:43.272Z,102686.98
2022-11-15T13:17:58.036Z,102684.12
2022-11-15T13:20:39.065Z,102689.47
2022-11-15T13:23:01.297Z,102693.76
2022-11-15T13:25:23.023Z,102698.02
2022-11-15T13:27:36.890Z,102691.16
2022-11-15T13:29:52.354Z,102690.30
2022-11-15T13:32:05.825Z,102689.08
2022-11-15T13:34:52.375Z,102687.50
2022-11-15T13:37:06.478Z,102694.96
2022-11-15T13:39:33.014Z,102693.39
2022-11-15T13:41:54.023Z,102692.16
2022-11-15T13:44:08.735Z,102699.92
2022-11-15T13:46:25.108Z,102697.96
2022-11-15T13:48:39.103Z,102696.88
2022-11-15T13:50:55.371Z,102695.48
2022-11-15T13:53:10.809Z,102696.03
2022-11-15T13:55:26.084Z,102689.14
2022-11-15T13:57:46.594Z,102691.23
2022-11-15T14:00:03.104Z,102696.60
2022-11-15T14:02:30.194Z,102691.24
2022-11-15T14:04:49.873Z,102697.30
2022-11-15T14:07:05.918Z,102706.45
2022-11-15T14:09:42.496Z,102700.91
2022-11-15T14:12:00.050Z,102702.59
2022-11-15T14:14:26.616Z,102687.21
2022-11-15T14:16:44.164Z,102685.94
2022-11-15T14:18:58.145Z,102686.27
2022-11-15T14:21:15.792Z,102693.97
2022-11-15T14:23:32.726Z,102693.22
2022-11-15T14:25:56.492Z,102691.94
2022-11-15T14:28:35.742Z,102691.40
2022-11-15T14:30:52.372Z,102690.27
2022-11-15T14:33:07.233Z,102701.17
2022-11-15T14:35:23.228Z,102697.06
2022-11-15T14:37:38.020Z,102700.27
2022-11-15T14:39:51.493Z,102698.91
2022-11-15T14:42:04.962Z,102699.94
2022-11-15T14:44:20.659Z,102705.92
2022-11-15T14:46:33.967Z,102712.29
2022-11-15T14:48:47.472Z,102720.59
2022-11-15T14:51:01.568Z,102720.08
2022-11-15T14:53:19.797Z,102724.37
2022-11-15T14:55:37.337Z,102719.66
2022-11-15T14:57:51.174Z,102720.22
2022-11-15T15:00:05.369Z,102716.58
2022-11-15T15:02:37.682Z,102702.89
2022-11-15T15:04:52.870Z,102696.57
2022-11-15T15:07:07.323Z,102693.83
2022-11-15T15:09:20.816Z,102691.77
2022-11-15T15:11:35.772Z,102700.96
2022-11-15T15:13:49.257Z,102701.42
2022-11-15T15:16:02.578Z,102687.64
2022-11-15T15:18:17.578Z,102695.13
2022-11-15T15:20:31.694Z,102698.81
2022-11-15T15:22:45.505Z,102704.81
2022-11-15T15:24:58.928Z,102699.50
2022-11-15T15:27:13.042Z,102701.91
2022-11-15T15:29:26.480Z,102704.55
2022-11-15T15:31:40.385Z,102713.89
2022-11-15T15:33:53.919Z,102715.23
2022-11-15T15:36:07.666Z,102718.01
2022-11-15T15:38:21.100Z,102717.24
2022-11-15T15:40:36.021Z,102723.55
2022-11-15T15:42:49.495Z,102728.27
2022-11-15T15:45:02.910Z,102725.21
2022-11-15T15:47:20.694Z,102720.19
2022-11-15T15:49:33.890Z,102714.94
2022-11-15T15:51:48.165Z,102718.38
2022-11-15T15:54:01.490Z,102717.53
2022-11-15T15:56:15.449Z,102714.64
2022-11-15T15:58:28.930Z,102716.83
2022-11-15T16:00:42.405Z,102720.48
2022-11-15T16:02:56.201Z,102718.23
2022-11-15T16:05:10.299Z,102730.30
2022-11-15T16:07:30.355Z,102730.80
2022-11-15T16:10:00.345Z,102739.52
2022-11-15T16:12:13.849Z,102738.88
2022-11-15T16:14:27.152Z,102738.81
2022-11-15T16:16:42.441Z,102738.39
2022-11-15T16:18:56.558Z,102739.77
2022-11-15T16:21:10.082Z,102730.69
2022-11-15T16:23:25.819Z,102728.52
2022-11-15T16:25:42.741Z,102731.27
2022-11-15T16:27:56.260Z,102737.40
2022-11-15T16:30:15.581Z,102729.41
2022-11-15T16:32:29.414Z,102732.71
2022-11-15T16:34:47.499Z,102739.45
2022-11-15T16:37:02.600Z,102751.83
2022-11-15T16:39:20.619Z,102751.27
2022-11-15T16:41:34.147Z,102759.40
2022-11-15T16:43:47.524Z,102762.17
2022-11-15T16:46:01.121Z,102767.40
2022-11-15T16:48:26.404Z,102771.90
2022-11-15T16:50:44.354Z,102775.35
2022-11-15T16:52:59.300Z,102781.04
2022-11-15T16:55:13.500Z,102777.86
2022-11-15T16:57:26.820Z,102782.78
2022-11-15T16:59:40.264Z,102776.92
2022-11-15T17:01:56.756Z,102760.56
2022-11-15T17:04:14.469Z,102762.66
2022-11-15T17:06:28.597Z,102767.29
2022-11-15T17:08:41.900Z,102773.95
2022-11-15T17:10:55.485Z,102774.11
2022-11-15T17:13:08.869Z,102771.12
2022-11-15T17:15:22.502Z,102774.45
2022-11-15T17:17:36.042Z,102777.66
2022-11-15T17:19:49.291Z,102780.88
2022-11-15T17:22:02.638Z,102778.42
2022-11-15T17:24:16.573Z,102781.81
2022-11-15T17:26:32.328Z,102797.11
2022-11-15T17:28:48.626Z,102790.98
2022-11-15T17:31:02.367Z,102790.52
2022-11-15T17:33:15.756Z,102787.76
2022-11-15T17:35:30.041Z,102792.29
2022-11-15T17:37:43.784Z,102791.10
2022-11-15T17:39:57.185Z,102810.32
2022-11-15T17:42:10.826Z,102806.11
2022-11-15T17:44:24.452Z,102812.77
2022-11-15T17:46:38.086Z,102814.61
2022-11-15T17:48:52.231Z,102814.66
2022-11-15T17:51:06.688Z,102818.42
2022-11-15T17:53:19.970Z,102808.70
2022-11-15T17:55:33.264Z,102810.02
2022-11-15T17:57:47.247Z,102805.41
2022-11-15T18:00:00.595Z,102805.39
2022-11-15T18:02:15.713Z,102805.63
2022-11-15T18:04:30.236Z,102812.96
2022-11-15T18:06:44.126Z,102818.16
2022-11-15T18:08:58.903Z,102817.38
2022-11-15T18:11:14.816Z,102819.08
2022-11-15T18:13:28.148Z,102821.23
2022-11-15T18:15:41.522Z,102816.30
2022-11-15T18:17:59.693Z,102820.06
2022-11-15T18:20:15.471Z,102822.55
2022-11-15T18:22:29.843Z,102827.76
2022-11-15T18:24:44.133Z,102835.45
2022-11-15T18:26:57.565Z,102837.20
2022-11-15T18:29:10.962Z,102837.77
2022-11-15T18:31:25.996Z,102840.29
2022-11-15T18:33:41.545Z,102831.79
2022-11-15T18:36:01.729Z,102828.63
2022-11-15T18:38:15.004Z,102833.24
2022-11-15T18:40:28.759Z,102840.58
2022-11-15T18:42:42.142Z,102839.67
2022-11-15T18:44:55.600Z,102844.48
2022-11-15T18:47:09.043Z,102841.98
2022-11-15T18:49:22.889Z,102839.65
2022-11-15T18:51:43.222Z,102844.38
2022-11-15T18:53:59.280Z,102840.64
2022-11-15T18:56:14.369Z,102837.60
2022-11-15T18:58:29.074Z,102832.10
2022-11-15T19:00:43.550Z,102830.88
2022-11-15T19:02:59.919Z,102828.51
2022-11-15T19:05:14.174Z,102834.33
2022-11-15T19:07:28.161Z,102831.82
2022-11-15T19:09:42.647Z,102830.90
2022-11-15T19:11:56.150Z,102826.59
2022-11-15T19:14:11.804Z,102821.50
2022-11-15T19:16:25.669Z,102822.80
2022-11-15T19:18:39.583Z,102826.42
2022-11-15T19:20:53.068Z,102828.19
2022-11-15T19:23:06.508Z,102824.67
2022-11-15T19:25:20.823Z,102827.10
2022-11-15T19:27:38.092Z,102824.42
2022-11-15T19:29:52.600Z,102821.38
2022-11-15T19:32:06.421Z,102819.09
2022-11-15T19:34:20.521Z,102819.05
2022-11-15T19:36:35.606Z,102813.82
2022-11-15T19:38:49.340Z,102816.08
2022-11-15T19:41:06.623Z,102817.70
2022-11-15T19:43:19.963Z,102816.11
2022-11-15T19:45:33.195Z,102815.88
2022-11-15T19:47:46.516Z,102816.81
2022-11-15T19:49:59.794Z,102812.40
2022-11-15T19:52:13.373Z,102809.27
2022-11-15T19:54:26.873Z,102806.95
2022-11-15T19:56:40.924Z,102807.11
2022-11-15T19:58:57.353Z,102805.20
2022-11-15T20:01:16.095Z,102801.66
2022-11-15T20:03:29.679Z,102802.03
2022-11-15T20:05:43.223Z,102799.77
2022-11-15T20:07:56.895Z,102798.59
2022-11-15T20:10:11.042Z,102793.90
2022-11-15T20:12:24.695Z,102792.77
2022-11-15T20:14:38.234Z,102789.88
2022-11-15T20:16:54.417Z,102790.23
2022-11-15T20:19:08.560Z,102777.61
2022-11-15T20:21:23.015Z,102780.83
2022-11-15T20:23:37.054Z,102782.79
2022-11-15T20:25:52.632Z,102790.25
2022-11-15T20:28:06.122Z,102795.00
2022-11-15T20:30:20.437Z,102801.55
2022-11-15T20:32:34.028Z,102799.56
2022-11-15T20:34:52.826Z,102798.91
2022-11-15T20:37:07.441Z,102802.72
2022-11-15T20:39:21.749Z,102799.97
2022-11-15T20:41:36.042Z,102797.27
2022-11-15T20:43:49.345Z,102798.96
2022-11-15T20:46:02.614Z,102800.98
2022-11-15T20:48:17.170Z,102801.02
2022-11-15T20:50:45.392Z,102795.66
2022-11-15T20:53:00.347Z,102794.06
2022-11-15T20:55:15.691Z,102793.48
2022-11-15T20:57:29.162Z,102787.92
2022-11-15T20:59:42.533Z,102787.08
2022-11-15T21:01:55.933Z,102792.02
2022-11-15T21:04:09.806Z,102783.41
2022-11-15T21:06:23.228Z,102781.77
2022-11-15T21:08:50.121Z,102784.08
2022-11-15T21:11:19.883Z,102779.72
2022-11-15T21:13:34.158Z,102779.78
2022-11-15T21:15:47.713Z,102775.48
2022-11-15T21:18:01.002Z,102779.33
2022-11-15T21:20:16.844Z,102775.95
2022-11-15T21:22:30.372Z,102779.98
2022-11-15T21:24:44.697Z,102774.04
2022-11-15T21:26:58.521Z,102776.44
2022-11-15T21:29:12.087Z,102774.47
2022-11-15T21:31:25.668Z,102780.27
2022-11-15T21:33:40.972Z,102776.05
2022-11-15T21:35:54.823Z,102779.73
2022-11-15T21:38:08.101Z,102776.20
2022-11-15T21:40:22.047Z,102784.36
2022-11-15T21:42:35.400Z,102784.35
2022-11-15T21:44:49.304Z,102786.11
2022-11-15T21:47:03.599Z,102785.29
2022-11-15T21:49:17.592Z,102785.00
2022-11-15T21:51:32.681Z,102775.46
2022-11-15T21:53:45.996Z,102774.58
2022-11-15T21:56:00.596Z,102775.13
2022-11-15T21:58:14.377Z,102776.63
2022-11-15T22:00:44.382Z,102780.55
2022-11-15T22:02:57.630Z,102789.01
2022-11-15T22:05:11.978Z,102787.59
2022-11-15T22:07:25.492Z,102792.80
2022-11-15T22:09:39.125Z,102796.61
2022-11-15T22:11:52.886Z,102794.61
2022-11-15T22:14:07.216Z,102797.08
2022-11-15T22:16:20.550Z,102797.55
2022-11-15T22:18:35.542Z,102798.13
2022-11-15T22:20:59.174Z,102803.30
2022-11-15T22:23:13.352Z,102803.67
2022-11-15T22:25:27.877Z,102803.63
2022-11-15T22:27:41.505Z,102801.80
2022-11-15T22:29:55.004Z,102798.77
2022-11-15T22:32:08.519Z,102799.96
2022-11-15T22:34:22.067Z,102795.31
2022-11-15T22:36:52.406Z,102794.05
2022-11-15T22:39:08.894Z,102788.96
2022-11-15T22:41:23.379Z,102789.58
2022-11-15T22:43:36.991Z,102789.54
2022-11-15T22:46:00.127Z,102790.63
2022-11-15T22:48:13.662Z,102792.21
2022-11-15T22:50:27.350Z,102791.38
2022-11-15T22:52:40.793Z,102796.77
2022-11-15T22:54:54.209Z,102795.90
2022-11-15T22:57:08.496Z,102799.70
2022-11-15T23:02:18.284Z,102804.85
2022-11-15T23:04:32.068Z,102800.04
2022-11-15T23:06:45.410Z,102805.02
2022-11-15T23:08:58.939Z,102796.38
2022-11-15T23:11:29.883Z,102795.56
2022-11-15T23:13:43.043Z,102798.21
2022-11-15T23:16:20.331Z,102801.73
2022-11-15T23:18:36.332Z,102802.81
2022-11-15T23:20:50.019Z,102801.86
2022-11-15T23:23:03.458Z,102805.13
2022-11-15T23:25:16.953Z,102808.67
2022-11-15T23:27:30.218Z,102814.23
2022-11-15T23:29:56.691Z,102817.02
2022-11-15T23:32:26.603Z,102818.45
2022-11-15T23:34:42.768Z,102816.48
2022-11-15T23:36:56.110Z,102814.17
2022-11-15T23:39:09.981Z,102817.80
2022-11-15T23:41:23.221Z,102816.94
2022-11-15T23:43:36.686Z,102821.03
2022-11-15T23:45:49.960Z,102814.73
2022-11-15T23:48:03.184Z,102824.75
2022-11-15T23:50:16.949Z,102830.48
2022-11-15T23:52:30.086Z,102829.36
2022-11-15T23:54:43.370Z,102832.94
2022-11-15T23:56:56.680Z,102831.61
2022-11-15T23:59:10.416Z,102836.04
